sensor_id;sensor_type;location;lat;lon;timestamp;P1;durP1;ratioP1;P2;durP2;ratioP2
62475;SDS011;50739;45.670;11.936;2023-07-31T00:03:10;4.75;;;4.35;;
62475;SDS011;50739;45.670;11.936;2023-07-31T00:08:14;4.30;;;3.90;;
62475;SDS011;50739;45.670;11.936;2023-07-31T00:13:16;4.95;;;4.40;;
62475;SDS011;50739;45.670;11.936;2023-07-31T00:18:18;5.57;;;4.20;;
62475;SDS011;50739;45.670;11.936;2023-07-31T00:23:22;4.00;;;3.70;;
62475;SDS011;50739;45.670;11.936;2023-07-31T00:28:24;4.38;;;3.65;;
62475;SDS011;50739;45.670;11.936;2023-07-31T00:33:27;3.80;;;3.50;;
62475;SDS011;50739;45.670;11.936;2023-07-31T00:38:31;4.20;;;3.30;;
62475;SDS011;50739;45.670;11.936;2023-07-31T00:43:33;5.37;;;3.50;;
62475;SDS011;50739;45.670;11.936;2023-07-31T00:54:25;3.75;;;3.42;;
62475;SDS011;50739;45.670;11.936;2023-07-31T00:59:27;5.85;;;3.80;;
62475;SDS011;50739;45.670;11.936;2023-07-31T01:04:30;4.40;;;4.00;;
62475;SDS011;50739;45.670;11.936;2023-07-31T01:09:36;4.80;;;4.00;;
62475;SDS011;50739;45.670;11.936;2023-07-31T01:14:50;4.05;;;3.65;;
62475;SDS011;50739;45.670;11.936;2023-07-31T01:19:53;4.43;;;3.92;;
62475;SDS011;50739;45.670;11.936;2023-07-31T01:25:03;4.00;;;3.60;;
62475;SDS011;50739;45.670;11.936;2023-07-31T01:30:20;5.70;;;3.80;;
62475;SDS011;50739;45.670;11.936;2023-07-31T01:35:27;3.90;;;3.50;;
62475;SDS011;50739;45.670;11.936;2023-07-31T01:40:29;4.88;;;3.85;;
62475;SDS011;50739;45.670;11.936;2023-07-31T01:45:33;4.90;;;4.40;;
62475;SDS011;50739;45.670;11.936;2023-07-31T01:50:36;5.07;;;4.30;;
62475;SDS011;50739;45.670;11.936;2023-07-31T01:55:38;5.20;;;4.60;;
62475;SDS011;50739;45.670;11.936;2023-07-31T02:00:42;6.45;;;4.90;;
62475;SDS011;50739;45.670;11.936;2023-07-31T02:05:44;5.60;;;5.10;;
62475;SDS011;50739;45.670;11.936;2023-07-31T02:10:46;5.60;;;4.53;;
62475;SDS011;50739;45.670;11.936;2023-07-31T02:15:50;5.78;;;4.75;;
62475;SDS011;50739;45.670;11.936;2023-07-31T02:20:52;6.00;;;4.82;;
62475;SDS011;50739;45.670;11.936;2023-07-31T02:25:55;5.55;;;4.80;;
62475;SDS011;50739;45.670;11.936;2023-07-31T02:30:58;5.72;;;4.72;;
62475;SDS011;50739;45.670;11.936;2023-07-31T02:36:01;5.63;;;5.05;;
62475;SDS011;50739;45.670;11.936;2023-07-31T02:41:03;7.10;;;5.22;;
62475;SDS011;50739;45.670;11.936;2023-07-31T02:46:06;7.20;;;5.50;;
62475;SDS011;50739;45.670;11.936;2023-07-31T02:51:09;6.75;;;5.80;;
62475;SDS011;50739;45.670;11.936;2023-07-31T02:56:11;5.75;;;5.25;;
62475;SDS011;50739;45.670;11.936;2023-07-31T03:01:15;6.13;;;5.53;;
62475;SDS011;50739;45.670;11.936;2023-07-31T03:06:17;6.90;;;5.30;;
62475;SDS011;50739;45.670;11.936;2023-07-31T03:11:19;7.50;;;5.80;;
62475;SDS011;50739;45.670;11.936;2023-07-31T03:16:23;6.87;;;5.70;;
62475;SDS011;50739;45.670;11.936;2023-07-31T03:21:25;8.13;;;5.47;;
62475;SDS011;50739;45.670;11.936;2023-07-31T03:26:27;6.53;;;5.33;;
62475;SDS011;50739;45.670;11.936;2023-07-31T03:31:31;6.07;;;5.00;;
62475;SDS011;50739;45.670;11.936;2023-07-31T03:36:34;5.90;;;4.93;;
62475;SDS011;50739;45.670;11.936;2023-07-31T03:41:36;5.95;;;5.07;;
62475;SDS011;50739;45.670;11.936;2023-07-31T03:46:40;5.37;;;4.70;;
62475;SDS011;50739;45.670;11.936;2023-07-31T03:51:42;5.50;;;5.00;;
62475;SDS011;50739;45.670;11.936;2023-07-31T03:56:45;5.47;;;4.88;;
62475;SDS011;50739;45.670;11.936;2023-07-31T04:01:48;7.28;;;5.60;;
62475;SDS011;50739;45.670;11.936;2023-07-31T04:06:51;6.30;;;5.05;;
62475;SDS011;50739;45.670;11.936;2023-07-31T04:11:53;5.25;;;4.68;;
62475;SDS011;50739;45.670;11.936;2023-07-31T04:16:57;5.20;;;4.30;;
62475;SDS011;50739;45.670;11.936;2023-07-31T04:21:59;4.40;;;4.00;;
62475;SDS011;50739;45.670;11.936;2023-07-31T04:27:01;5.88;;;4.30;;
62475;SDS011;50739;45.670;11.936;2023-07-31T04:32:05;4.60;;;4.20;;
62475;SDS011;50739;45.670;11.936;2023-07-31T04:37:08;5.53;;;4.57;;
62475;SDS011;50739;45.670;11.936;2023-07-31T04:42:10;4.77;;;4.27;;
62475;SDS011;50739;45.670;11.936;2023-07-31T04:47:14;5.68;;;4.90;;
62475;SDS011;50739;45.670;11.936;2023-07-31T04:52:16;5.77;;;5.20;;
62475;SDS011;50739;45.670;11.936;2023-07-31T04:57:19;4.47;;;4.10;;
62475;SDS011;50739;45.670;11.936;2023-07-31T05:02:22;4.20;;;3.72;;
62475;SDS011;50739;45.670;11.936;2023-07-31T05:07:25;5.95;;;3.53;;
62475;SDS011;50739;45.670;11.936;2023-07-31T05:12:27;4.43;;;2.60;;
62475;SDS011;50739;45.670;11.936;2023-07-31T05:17:31;3.20;;;2.90;;
62475;SDS011;50739;45.670;11.936;2023-07-31T05:22:33;2.58;;;2.38;;
62475;SDS011;50739;45.670;11.936;2023-07-31T05:27:35;2.50;;;2.30;;
62475;SDS011;50739;45.670;11.936;2023-07-31T05:32:39;3.30;;;2.50;;
62475;SDS011;50739;45.670;11.936;2023-07-31T05:37:41;2.67;;;2.30;;
62475;SDS011;50739;45.670;11.936;2023-07-31T05:42:44;2.78;;;2.45;;
62475;SDS011;50739;45.670;11.936;2023-07-31T05:47:47;2.40;;;2.20;;
62475;SDS011;50739;45.670;11.936;2023-07-31T05:52:49;2.60;;;2.40;;
62475;SDS011;50739;45.670;11.936;2023-07-31T05:57:52;3.17;;;2.35;;
62475;SDS011;50739;45.670;11.936;2023-07-31T06:02:56;2.30;;;2.10;;
62475;SDS011;50739;45.670;11.936;2023-07-31T06:07:58;2.90;;;2.15;;
62475;SDS011;50739;45.670;11.936;2023-07-31T06:13:00;2.20;;;2.00;;
62475;SDS011;50739;45.670;11.936;2023-07-31T06:18:04;2.83;;;2.00;;
62475;SDS011;50739;45.670;11.936;2023-07-31T06:23:08;2.43;;;1.90;;
62475;SDS011;50739;45.670;11.936;2023-07-31T06:28:10;2.30;;;1.70;;
62475;SDS011;50739;45.670;11.936;2023-07-31T06:33:14;1.65;;;1.55;;
62475;SDS011;50739;45.670;11.936;2023-07-31T06:38:18;1.80;;;1.60;;
62475;SDS011;50739;45.670;11.936;2023-07-31T06:43:23;3.63;;;1.55;;
62475;SDS011;50739;45.670;11.936;2023-07-31T06:48:27;1.58;;;1.33;;
62475;SDS011;50739;45.670;11.936;2023-07-31T06:53:29;1.77;;;1.40;;
62475;SDS011;50739;45.670;11.936;2023-07-31T06:58:32;3.08;;;1.42;;
62475;SDS011;50739;45.670;11.936;2023-07-31T07:03:36;1.70;;;1.38;;
62475;SDS011;50739;45.670;11.936;2023-07-31T07:08:38;1.90;;;1.17;;
62475;SDS011;50739;45.670;11.936;2023-07-31T07:13:40;2.50;;;1.17;;
62475;SDS011;50739;45.670;11.936;2023-07-31T07:18:44;2.13;;;1.05;;
62475;SDS011;50739;45.670;11.936;2023-07-31T07:23:46;1.25;;;1.13;;
62475;SDS011;50739;45.670;11.936;2023-07-31T07:28:48;3.23;;;1.03;;
62475;SDS011;50739;45.670;11.936;2023-07-31T07:33:52;1.20;;;1.03;;
62475;SDS011;50739;45.670;11.936;2023-07-31T07:38:54;2.78;;;1.35;;
62475;SDS011;50739;45.670;11.936;2023-07-31T07:43:58;1.60;;;1.20;;
62475;SDS011;50739;45.670;11.936;2023-07-31T07:49:01;4.93;;;1.30;;
62475;SDS011;50739;45.670;11.936;2023-07-31T07:54:04;1.15;;;1.00;;
62475;SDS011;50739;45.670;11.936;2023-07-31T07:59:06;1.25;;;1.15;;
62475;SDS011;50739;45.670;11.936;2023-07-31T08:04:10;1.30;;;1.00;;
62475;SDS011;50739;45.670;11.936;2023-07-31T08:09:12;4.55;;;1.20;;
62475;SDS011;50739;45.670;11.936;2023-07-31T08:14:14;2.55;;;1.23;;
62475;SDS011;50739;45.670;11.936;2023-07-31T08:19:18;3.25;;;1.30;;
62475;SDS011;50739;45.670;11.936;2023-07-31T08:24:20;1.30;;;1.00;;
62475;SDS011;50739;45.670;11.936;2023-07-31T08:29:23;2.77;;;1.20;;
62475;SDS011;50739;45.670;11.936;2023-07-31T08:34:26;1.67;;;1.10;;
62475;SDS011;50739;45.670;11.936;2023-07-31T08:39:28;1.40;;;1.00;;
62475;SDS011;50739;45.670;11.936;2023-07-31T08:44:31;2.10;;;1.40;;
62475;SDS011;50739;45.670;11.936;2023-07-31T08:49:35;2.22;;;1.13;;
62475;SDS011;50739;45.670;11.936;2023-07-31T08:54:40;1.30;;;1.02;;
62475;SDS011;50739;45.670;11.936;2023-07-31T08:59:43;1.70;;;1.20;;
62475;SDS011;50739;45.670;11.936;2023-07-31T09:04:47;1.58;;;1.05;;
62475;SDS011;50739;45.670;11.936;2023-07-31T09:09:50;1.30;;;1.20;;
62475;SDS011;50739;45.670;11.936;2023-07-31T09:14:52;2.80;;;1.10;;
62475;SDS011;50739;45.670;11.936;2023-07-31T09:19:56;1.08;;;0.98;;
62475;SDS011;50739;45.670;11.936;2023-07-31T09:25:03;1.90;;;1.20;;
62475;SDS011;50739;45.670;11.936;2023-07-31T09:30:15;2.15;;;1.10;;
62475;SDS011;50739;45.670;11.936;2023-07-31T09:35:20;2.40;;;1.10;;
62475;SDS011;50739;45.670;11.936;2023-07-31T09:40:26;1.50;;;1.10;;
62475;SDS011;50739;45.670;11.936;2023-07-31T09:45:33;1.27;;;1.00;;
62475;SDS011;50739;45.670;11.936;2023-07-31T09:50:38;1.48;;;1.08;;
62475;SDS011;50739;45.670;11.936;2023-07-31T09:55:41;0.97;;;0.90;;
62475;SDS011;50739;45.670;11.936;2023-07-31T10:00:44;1.23;;;1.13;;
62475;SDS011;50739;45.670;11.936;2023-07-31T10:05:49;1.13;;;1.00;;
62475;SDS011;50739;45.670;11.936;2023-07-31T10:10:53;1.30;;;1.00;;
62475;SDS011;50739;45.670;11.936;2023-07-31T10:15:58;1.15;;;1.00;;
62475;SDS011;50739;45.670;11.936;2023-07-31T10:21:03;1.20;;;1.00;;
62475;SDS011;50739;45.670;11.936;2023-07-31T10:26:05;1.83;;;1.30;;
62475;SDS011;50739;45.670;11.936;2023-07-31T10:31:09;1.40;;;1.20;;
62475;SDS011;50739;45.670;11.936;2023-07-31T10:36:13;1.67;;;1.00;;
62475;SDS011;50739;45.670;11.936;2023-07-31T10:41:17;1.90;;;1.10;;
62475;SDS011;50739;45.670;11.936;2023-07-31T10:46:19;2.40;;;1.10;;
62475;SDS011;50739;45.670;11.936;2023-07-31T10:51:23;1.97;;;1.20;;
62475;SDS011;50739;45.670;11.936;2023-07-31T10:56:25;1.88;;;1.10;;
62475;SDS011;50739;45.670;11.936;2023-07-31T11:01:37;0.88;;;0.88;;
62475;SDS011;50739;45.670;11.936;2023-07-31T11:06:56;2.55;;;1.10;;
62475;SDS011;50739;45.670;11.936;2023-07-31T11:11:59;1.10;;;1.00;;
62475;SDS011;50739;45.670;11.936;2023-07-31T11:17:05;1.13;;;0.90;;
62475;SDS011;50739;45.670;11.936;2023-07-31T11:22:09;0.93;;;0.93;;
62475;SDS011;50739;45.670;11.936;2023-07-31T11:27:12;1.07;;;0.80;;
62475;SDS011;50739;45.670;11.936;2023-07-31T11:32:15;1.20;;;1.00;;
62475;SDS011;50739;45.670;11.936;2023-07-31T11:37:20;1.37;;;0.83;;
62475;SDS011;50739;45.670;11.936;2023-07-31T11:42:22;2.00;;;0.90;;
62475;SDS011;50739;45.670;11.936;2023-07-31T11:47:25;1.10;;;1.00;;
62475;SDS011;50739;45.670;11.936;2023-07-31T11:52:30;1.20;;;0.90;;
62475;SDS011;50739;45.670;11.936;2023-07-31T11:57:36;0.80;;;0.80;;
62475;SDS011;50739;45.670;11.936;2023-07-31T12:02:39;2.33;;;1.27;;
62475;SDS011;50739;45.670;11.936;2023-07-31T12:07:44;1.60;;;0.90;;
62475;SDS011;50739;45.670;11.936;2023-07-31T12:12:55;1.83;;;1.23;;
62475;SDS011;50739;45.670;11.936;2023-07-31T12:17:59;2.80;;;1.30;;
62475;SDS011;50739;45.670;11.936;2023-07-31T12:23:03;1.10;;;1.00;;
62475;SDS011;50739;45.670;11.936;2023-07-31T12:28:05;1.27;;;1.10;;
62475;SDS011;50739;45.670;11.936;2023-07-31T12:33:12;1.65;;;1.20;;
62475;SDS011;50739;45.670;11.936;2023-07-31T12:38:17;1.30;;;1.13;;
62475;SDS011;50739;45.670;11.936;2023-07-31T12:43:19;1.30;;;1.20;;
62475;SDS011;50739;45.670;11.936;2023-07-31T12:48:21;1.23;;;1.13;;
62475;SDS011;50739;45.670;11.936;2023-07-31T12:53:25;1.90;;;1.20;;
62475;SDS011;50739;45.670;11.936;2023-07-31T12:58:28;2.95;;;1.10;;
62475;SDS011;50739;45.670;11.936;2023-07-31T13:03:30;1.27;;;1.17;;
62475;SDS011;50739;45.670;11.936;2023-07-31T13:08:34;1.23;;;1.05;;
62475;SDS011;50739;45.670;11.936;2023-07-31T13:13:36;1.10;;;1.00;;
62475;SDS011;50739;45.670;11.936;2023-07-31T13:18:38;1.95;;;1.00;;
62475;SDS011;50739;45.670;11.936;2023-07-31T13:23:42;1.00;;;1.00;;
62475;SDS011;50739;45.670;11.936;2023-07-31T13:28:44;2.70;;;1.30;;
62475;SDS011;50739;45.670;11.936;2023-07-31T13:33:47;1.80;;;1.10;;
62475;SDS011;50739;45.670;11.936;2023-07-31T13:38:50;1.00;;;1.00;;
62475;SDS011;50739;45.670;11.936;2023-07-31T13:43:53;1.85;;;1.15;;
62475;SDS011;50739;45.670;11.936;2023-07-31T13:48:55;1.10;;;1.00;;
62475;SDS011;50739;45.670;11.936;2023-07-31T13:53:59;1.25;;;1.15;;
62475;SDS011;50739;45.670;11.936;2023-07-31T13:59:03;1.70;;;1.17;;
62475;SDS011;50739;45.670;11.936;2023-07-31T14:04:05;2.17;;;1.30;;
62475;SDS011;50739;45.670;11.936;2023-07-31T14:09:09;1.08;;;0.98;;
62475;SDS011;50739;45.670;11.936;2023-07-31T14:14:11;1.37;;;1.00;;
62475;SDS011;50739;45.670;11.936;2023-07-31T14:19:14;1.27;;;1.17;;
62475;SDS011;50739;45.670;11.936;2023-07-31T14:24:18;1.63;;;1.03;;
62475;SDS011;50739;45.670;11.936;2023-07-31T14:29:20;1.23;;;1.03;;
62475;SDS011;50739;45.670;11.936;2023-07-31T14:34:22;1.10;;;1.00;;
62475;SDS011;50739;45.670;11.936;2023-07-31T14:39:26;1.20;;;1.10;;
62475;SDS011;50739;45.670;11.936;2023-07-31T14:44:28;1.40;;;1.08;;
62475;SDS011;50739;45.670;11.936;2023-07-31T14:49:30;1.65;;;1.00;;
62475;SDS011;50739;45.670;11.936;2023-07-31T14:54:34;1.10;;;1.00;;
62475;SDS011;50739;45.670;11.936;2023-07-31T14:59:36;1.27;;;1.00;;
62475;SDS011;50739;45.670;11.936;2023-07-31T15:04:39;1.30;;;1.00;;
62475;SDS011;50739;45.670;11.936;2023-07-31T15:09:42;1.15;;;1.05;;
62475;SDS011;50739;45.670;11.936;2023-07-31T15:14:45;1.15;;;1.05;;
62475;SDS011;50739;45.670;11.936;2023-07-31T15:19:47;1.73;;;1.00;;
62475;SDS011;50739;45.670;11.936;2023-07-31T15:24:51;1.47;;;1.10;;
62475;SDS011;50739;45.670;11.936;2023-07-31T15:29:53;1.57;;;1.10;;
62475;SDS011;50739;45.670;11.936;2023-07-31T15:34:55;1.40;;;1.00;;
62475;SDS011;50739;45.670;11.936;2023-07-31T15:39:59;1.20;;;1.10;;
62475;SDS011;50739;45.670;11.936;2023-07-31T15:45:01;1.05;;;0.88;;
62475;SDS011;50739;45.670;11.936;2023-07-31T15:50:04;2.10;;;1.15;;
62475;SDS011;50739;45.670;11.936;2023-07-31T15:55:08;1.50;;;1.20;;
62475;SDS011;50739;45.670;11.936;2023-07-31T16:00:12;2.72;;;1.08;;
62475;SDS011;50739;45.670;11.936;2023-07-31T16:05:14;1.20;;;1.10;;
62475;SDS011;50739;45.670;11.936;2023-07-31T16:10:18;0.85;;;0.82;;
62475;SDS011;50739;45.670;11.936;2023-07-31T16:15:20;1.17;;;1.07;;
62475;SDS011;50739;45.670;11.936;2023-07-31T16:20:22;1.10;;;1.00;;
62475;SDS011;50739;45.670;11.936;2023-07-31T16:25:26;1.10;;;0.98;;
62475;SDS011;50739;45.670;11.936;2023-07-31T16:30:28;1.30;;;1.20;;
62475;SDS011;50739;45.670;11.936;2023-07-31T16:35:31;1.50;;;1.00;;
62475;SDS011;50739;45.670;11.936;2023-07-31T16:40:35;3.80;;;1.50;;
62475;SDS011;50739;45.670;11.936;2023-07-31T16:45:37;2.05;;;1.20;;
62475;SDS011;50739;45.670;11.936;2023-07-31T16:50:40;1.73;;;1.10;;
62475;SDS011;50739;45.670;11.936;2023-07-31T16:55:43;1.42;;;1.10;;
62475;SDS011;50739;45.670;11.936;2023-07-31T17:00:46;0.80;;;0.80;;
62475;SDS011;50739;45.670;11.936;2023-07-31T17:05:48;2.37;;;1.10;;
62475;SDS011;50739;45.670;11.936;2023-07-31T17:10:52;1.63;;;1.10;;
62475;SDS011;50739;45.670;11.936;2023-07-31T17:15:54;1.10;;;0.90;;
62475;SDS011;50739;45.670;11.936;2023-07-31T17:20:56;1.00;;;0.90;;
62475;SDS011;50739;45.670;11.936;2023-07-31T17:26:00;1.50;;;1.02;;
62475;SDS011;50739;45.670;11.936;2023-07-31T17:31:02;1.00;;;0.90;;
62475;SDS011;50739;45.670;11.936;2023-07-31T17:36:05;1.67;;;0.90;;
62475;SDS011;50739;45.670;11.936;2023-07-31T17:41:08;1.40;;;1.08;;
62475;SDS011;50739;45.670;11.936;2023-07-31T17:46:11;1.85;;;1.10;;
62475;SDS011;50739;45.670;11.936;2023-07-31T17:51:14;1.83;;;1.00;;
62475;SDS011;50739;45.670;11.936;2023-07-31T17:56:18;1.50;;;1.13;;
62475;SDS011;50739;45.670;11.936;2023-07-31T18:01:20;1.52;;;1.25;;
62475;SDS011;50739;45.670;11.936;2023-07-31T18:06:22;1.33;;;1.20;;
62475;SDS011;50739;45.670;11.936;2023-07-31T18:11:26;2.30;;;1.25;;
62475;SDS011;50739;45.670;11.936;2023-07-31T18:16:30;2.78;;;1.10;;
62475;SDS011;50739;45.670;11.936;2023-07-31T18:21:33;1.55;;;1.00;;
62475;SDS011;50739;45.670;11.936;2023-07-31T18:26:38;1.85;;;1.10;;
62475;SDS011;50739;45.670;11.936;2023-07-31T18:36:51;1.67;;;1.17;;
62475;SDS011;50739;45.670;11.936;2023-07-31T18:41:54;1.75;;;1.40;;
62475;SDS011;50739;45.670;11.936;2023-07-31T18:46:57;3.38;;;1.75;;
62475;SDS011;50739;45.670;11.936;2023-07-31T18:51:59;7.18;;;2.42;;
62475;SDS011;50739;45.670;11.936;2023-07-31T18:57:03;4.88;;;3.00;;
62475;SDS011;50739;45.670;11.936;2023-07-31T19:02:06;3.97;;;2.53;;
62475;SDS011;50739;45.670;11.936;2023-07-31T19:07:08;4.70;;;2.47;;
62475;SDS011;50739;45.670;11.936;2023-07-31T19:12:12;2.33;;;1.80;;
62475;SDS011;50739;45.670;11.936;2023-07-31T19:17:15;1.40;;;1.30;;
62475;SDS011;50739;45.670;11.936;2023-07-31T19:22:17;2.83;;;1.50;;
62475;SDS011;50739;45.670;11.936;2023-07-31T19:27:21;2.35;;;1.55;;
62475;SDS011;50739;45.670;11.936;2023-07-31T19:32:23;2.30;;;1.37;;
62475;SDS011;50739;45.670;11.936;2023-07-31T19:37:26;2.25;;;1.65;;
62475;SDS011;50739;45.670;11.936;2023-07-31T19:42:30;2.30;;;1.60;;
62475;SDS011;50739;45.670;11.936;2023-07-31T19:47:33;1.38;;;1.20;;
62475;SDS011;50739;45.670;11.936;2023-07-31T19:52:35;1.63;;;1.30;;
62475;SDS011;50739;45.670;11.936;2023-07-31T19:57:39;2.03;;;1.57;;
62475;SDS011;50739;45.670;11.936;2023-07-31T20:02:41;1.92;;;1.50;;
62475;SDS011;50739;45.670;11.936;2023-07-31T20:07:43;2.70;;;1.73;;
62475;SDS011;50739;45.670;11.936;2023-07-31T20:12:47;1.75;;;1.60;;
62475;SDS011;50739;45.670;11.936;2023-07-31T20:17:49;1.80;;;1.40;;
62475;SDS011;50739;45.670;11.936;2023-07-31T20:22:52;1.63;;;1.35;;
62475;SDS011;50739;45.670;11.936;2023-07-31T20:27:56;2.47;;;1.80;;
62475;SDS011;50739;45.670;11.936;2023-07-31T20:32:58;2.53;;;1.70;;
62475;SDS011;50739;45.670;11.936;2023-07-31T20:38:01;2.93;;;1.77;;
62475;SDS011;50739;45.670;11.936;2023-07-31T20:43:04;2.93;;;1.50;;
62475;SDS011;50739;45.670;11.936;2023-07-31T20:48:08;2.30;;;1.48;;
62475;SDS011;50739;45.670;11.936;2023-07-31T20:53:12;2.30;;;1.50;;
62475;SDS011;50739;45.670;11.936;2023-07-31T20:58:15;2.92;;;1.50;;
62475;SDS011;50739;45.670;11.936;2023-07-31T21:03:18;1.90;;;1.60;;
62475;SDS011;50739;45.670;11.936;2023-07-31T21:08:20;9.20;;;3.33;;
62475;SDS011;50739;45.670;11.936;2023-07-31T21:13:24;2.72;;;2.40;;
62475;SDS011;50739;45.670;11.936;2023-07-31T21:18:26;3.00;;;2.70;;
62475;SDS011;50739;45.670;11.936;2023-07-31T21:23:28;3.33;;;2.70;;
62475;SDS011;50739;45.670;11.936;2023-07-31T21:28:32;4.90;;;3.13;;
62475;SDS011;50739;45.670;11.936;2023-07-31T21:33:34;4.93;;;3.85;;
62475;SDS011;50739;45.670;11.936;2023-07-31T21:38:37;5.68;;;4.40;;
62475;SDS011;50739;45.670;11.936;2023-07-31T21:43:41;5.07;;;4.30;;
62475;SDS011;50739;45.670;11.936;2023-07-31T21:48:43;6.25;;;4.05;;
62475;SDS011;50739;45.670;11.936;2023-07-31T21:53:45;4.05;;;3.63;;
62475;SDS011;50739;45.670;11.936;2023-07-31T21:58:49;3.88;;;3.30;;
62475;SDS011;50739;45.670;11.936;2023-07-31T22:03:51;3.55;;;3.20;;
62475;SDS011;50739;45.670;11.936;2023-07-31T22:08:56;4.07;;;3.67;;
62475;SDS011;50739;45.670;11.936;2023-07-31T22:14:00;4.07;;;3.67;;
62475;SDS011;50739;45.670;11.936;2023-07-31T22:19:03;4.83;;;3.60;;
62475;SDS011;50739;45.670;11.936;2023-07-31T22:24:05;4.28;;;3.45;;
62475;SDS011;50739;45.670;11.936;2023-07-31T22:29:09;4.13;;;2.92;;
62475;SDS011;50739;45.670;11.936;2023-07-31T22:34:12;4.97;;;3.50;;
62475;SDS011;50739;45.670;11.936;2023-07-31T22:39:14;4.40;;;3.47;;
62475;SDS011;50739;45.670;11.936;2023-07-31T22:44:18;4.82;;;3.42;;
62475;SDS011;50739;45.670;11.936;2023-07-31T22:49:20;4.73;;;3.50;;
62475;SDS011;50739;45.670;11.936;2023-07-31T22:54:22;4.88;;;2.90;;
62475;SDS011;50739;45.670;11.936;2023-07-31T22:59:26;5.78;;;3.20;;
62475;SDS011;50739;45.670;11.936;2023-07-31T23:04:28;3.67;;;2.90;;
62475;SDS011;50739;45.670;11.936;2023-07-31T23:09:31;3.10;;;2.80;;
62475;SDS011;50739;45.670;11.936;2023-07-31T23:14:34;4.75;;;3.50;;
62475;SDS011;50739;45.670;11.936;2023-07-31T23:19:37;4.17;;;3.27;;
62475;SDS011;50739;45.670;11.936;2023-07-31T23:24:39;5.68;;;4.47;;
62475;SDS011;50739;45.670;11.936;2023-07-31T23:29:43;6.97;;;5.68;;
62475;SDS011;50739;45.670;11.936;2023-07-31T23:34:45;6.50;;;5.77;;
62475;SDS011;50739;45.670;11.936;2023-07-31T23:39:47;6.97;;;6.03;;
62475;SDS011;50739;45.670;11.936;2023-07-31T23:44:51;8.30;;;6.50;;
62475;SDS011;50739;45.670;11.936;2023-07-31T23:49:53;8.00;;;6.53;;
62475;SDS011;50739;45.670;11.936;2023-07-31T23:54:56;8.32;;;7.38;;
62475;SDS011;50739;45.670;11.936;2023-07-31T23:59:59;9.32;;;7.60;;
